createdAt,value
2017-06-29T00:00:08.263Z,989.3
2017-06-29T00:00:46.214Z,989.3
2017-06-29T00:01:23.863Z,989.2
2017-06-29T00:02:01.518Z,989.2
2017-06-29T00:02:39.383Z,989.2
2017-06-29T00:03:17.634Z,989.2
2017-06-29T00:03:55.392Z,989.2
2017-06-29T00:04:33.241Z,989.2
2017-06-29T00:05:11.098Z,989.2
2017-06-29T00:05:48.849Z,989.2
2017-06-29T00:06:26.823Z,989.2
2017-06-29T00:07:04.698Z,989.2
2017-06-29T00:07:42.444Z,989.2
2017-06-29T00:08:20.509Z,989.2
2017-06-29T00:08:58.449Z,989.2
2017-06-29T00:09:36.702Z,989.2
2017-06-29T00:10:14.756Z,989.2
2017-06-29T00:10:52.599Z,989.2
2017-06-29T00:11:30.351Z,989.2
2017-06-29T00:12:08.308Z,989.2
2017-06-29T00:12:45.957Z,989.2
2017-06-29T00:13:24.207Z,989.2
2017-06-29T00:14:01.961Z,989.2
2017-06-29T00:14:40.216Z,989.2
2017-06-29T00:15:18.163Z,989.2
2017-06-29T00:15:56.124Z,989.2
2017-06-29T00:16:33.984Z,989.1
2017-06-29T00:17:11.836Z,989.2
2017-06-29T00:17:49.592Z,989.2
2017-06-29T00:18:27.641Z,989.2
2017-06-29T00:19:05.384Z,989.2
2017-06-29T00:19:43.334Z,989.2
2017-06-29T00:20:21.084Z,989.2
2017-06-29T00:20:59.239Z,989.2
2017-06-29T00:21:37.089Z,989.1
2017-06-29T00:22:15.141Z,989.1
2017-06-29T00:22:52.888Z,989.1
2017-06-29T00:23:30.836Z,989.1
2017-06-29T00:24:08.586Z,989.0
2017-06-29T00:24:46.431Z,989.1
2017-06-29T00:25:24.493Z,989.1
2017-06-29T00:26:02.455Z,989.1
2017-06-29T00:26:40.099Z,989.1
2017-06-29T00:27:17.958Z,989.1
2017-06-29T00:27:55.814Z,989.1
2017-06-29T00:28:33.470Z,989.1
2017-06-29T00:29:11.449Z,989.0
2017-06-29T00:29:49.300Z,989.1
2017-06-29T00:30:27.054Z,989.1
2017-06-29T00:31:05.011Z,989.0
2017-06-29T00:31:42.570Z,989.0
2017-06-29T00:32:20.421Z,989.0
2017-06-29T00:32:58.377Z,989.0
2017-06-29T00:33:36.025Z,989.0
2017-06-29T00:34:13.781Z,989.0
2017-06-29T00:34:51.433Z,989.0
2017-06-29T00:35:29.188Z,989.0
2017-06-29T00:36:07.040Z,989.0
2017-06-29T00:36:44.701Z,989.0
2017-06-29T00:37:22.363Z,989.0
2017-06-29T00:38:00.109Z,989.0
2017-06-29T00:38:38.775Z,989.0
2017-06-29T00:39:17.037Z,989.0
2017-06-29T00:39:54.737Z,989.0
2017-06-29T00:40:32.898Z,989.0
2017-06-29T00:41:10.960Z,989.0
2017-06-29T00:41:48.611Z,989.0
2017-06-29T00:42:26.665Z,989.0
2017-06-29T00:43:04.619Z,989.0
2017-06-29T00:43:42.477Z,989.0
2017-06-29T00:44:20.130Z,989.0
2017-06-29T00:44:58.085Z,989.0
2017-06-29T00:45:36.041Z,989.0
2017-06-29T00:46:13.890Z,989.0
2017-06-29T00:46:51.843Z,989.0
2017-06-29T00:47:29.511Z,989.0
2017-06-29T00:48:07.364Z,989.0
2017-06-29T00:48:44.827Z,988.9
2017-06-29T00:49:22.780Z,988.9
2017-06-29T00:50:00.631Z,988.9
2017-06-29T00:50:38.294Z,989.0
2017-06-29T00:51:16.243Z,988.9
2017-06-29T00:51:54.197Z,988.9
2017-06-29T00:52:32.052Z,988.9
2017-06-29T00:53:10.406Z,988.9
2017-06-29T00:53:48.368Z,988.9
2017-06-29T00:54:26.423Z,989.0
2017-06-29T00:55:04.378Z,988.9
2017-06-29T00:55:42.532Z,989.0
2017-06-29T00:56:20.190Z,989.0
2017-06-29T00:56:58.247Z,989.0
2017-06-29T00:57:36.502Z,989.0
2017-06-29T00:58:14.056Z,988.9
2017-06-29T00:58:51.835Z,989.0
2017-06-29T00:59:29.783Z,988.9
2017-06-29T01:00:07.544Z,988.9
2017-06-29T01:00:45.416Z,989.0
2017-06-29T01:01:23.176Z,989.0
2017-06-29T01:02:00.826Z,989.0
2017-06-29T01:02:38.882Z,989.0
2017-06-29T01:03:16.537Z,989.0
2017-06-29T01:03:54.386Z,989.0
2017-06-29T01:04:32.440Z,989.0
2017-06-29T01:05:10.303Z,989.0
2017-06-29T01:05:48.154Z,988.9
2017-06-29T01:06:25.800Z,989.0
2017-06-29T01:07:03.555Z,989.0
2017-06-29T01:07:41.712Z,989.0
2017-06-29T01:08:19.260Z,989.0
2017-06-29T01:08:56.721Z,988.9
2017-06-29T01:09:34.568Z,989.0
2017-06-29T01:10:12.326Z,989.0
2017-06-29T01:10:50.277Z,989.0
2017-06-29T01:11:28.140Z,989.0
2017-06-29T01:12:06.206Z,989.0
2017-06-29T01:12:43.663Z,989.0
2017-06-29T01:13:21.822Z,989.0
2017-06-29T01:13:59.676Z,989.0
2017-06-29T01:14:37.348Z,989.0
2017-06-29T01:15:15.500Z,989.0
2017-06-29T01:15:53.552Z,989.0
2017-06-29T01:16:31.424Z,989.1
2017-06-29T01:17:09.189Z,989.0
2017-06-29T01:17:46.941Z,989.0
2017-06-29T01:18:24.719Z,989.0
2017-06-29T01:19:02.861Z,989.0
2017-06-29T01:19:40.912Z,989.0
2017-06-29T01:20:18.872Z,989.0
2017-06-29T01:20:56.621Z,989.0
2017-06-29T01:21:34.772Z,989.0
2017-06-29T01:22:12.551Z,989.0
2017-06-29T01:22:50.500Z,988.9
2017-06-29T01:23:28.361Z,989.0
2017-06-29T01:24:06.130Z,989.0
2017-06-29T01:24:44.278Z,988.9
2017-06-29T01:25:22.240Z,989.0
2017-06-29T01:26:00.199Z,989.0
2017-06-29T01:26:38.380Z,988.9
2017-06-29T01:27:16.642Z,989.0
2017-06-29T01:27:54.619Z,989.0
2017-06-29T01:28:32.493Z,989.0
2017-06-29T01:29:10.350Z,988.9
2017-06-29T01:29:48.008Z,988.9
2017-06-29T01:30:26.166Z,989.0
2017-06-29T01:31:03.920Z,988.9
2017-06-29T01:31:41.702Z,988.9
2017-06-29T01:32:19.553Z,988.9
2017-06-29T01:32:57.420Z,988.9
2017-06-29T01:33:35.489Z,988.9
2017-06-29T01:34:13.154Z,989.0
2017-06-29T01:34:51.017Z,988.9
2017-06-29T01:35:28.872Z,988.9
2017-06-29T01:36:06.831Z,988.9
2017-06-29T01:36:44.992Z,988.9
2017-06-29T01:37:23.146Z,988.9
2017-06-29T01:38:01.099Z,988.9
2017-06-29T01:38:39.054Z,988.9
2017-06-29T01:39:17.012Z,988.9
2017-06-29T01:39:55.073Z,988.9
2017-06-29T01:40:32.743Z,988.8
2017-06-29T01:41:10.700Z,988.9
2017-06-29T01:41:48.360Z,988.8
2017-06-29T01:42:26.011Z,988.8
2017-06-29T01:43:04.072Z,988.8
2017-06-29T01:43:42.134Z,988.8
2017-06-29T01:44:19.889Z,988.9
2017-06-29T01:44:57.746Z,988.9
2017-06-29T01:45:35.710Z,988.9
2017-06-29T01:46:13.765Z,988.8
2017-06-29T01:46:51.522Z,988.8
2017-06-29T01:47:29.581Z,988.8
2017-06-29T01:48:07.138Z,988.8
2017-06-29T01:48:44.993Z,988.8
2017-06-29T01:49:22.655Z,988.8
2017-06-29T01:50:00.316Z,988.8
2017-06-29T01:50:38.374Z,988.8
2017-06-29T01:51:16.330Z,988.8
2017-06-29T01:51:54.287Z,988.8
2017-06-29T01:52:32.153Z,988.9
2017-06-29T01:53:09.909Z,988.8
2017-06-29T01:53:47.572Z,988.8
2017-06-29T01:54:25.237Z,988.8
2017-06-29T01:55:03.598Z,988.8
2017-06-29T01:55:41.860Z,988.9
2017-06-29T01:56:19.523Z,988.8
2017-06-29T01:56:57.288Z,988.8
2017-06-29T01:57:35.246Z,988.9
2017-06-29T01:58:13.110Z,988.9
2017-06-29T01:58:50.570Z,988.9
2017-06-29T01:59:28.627Z,988.9
2017-06-29T02:00:06.390Z,988.8
2017-06-29T02:00:44.846Z,988.9
2017-06-29T02:01:22.405Z,988.9
2017-06-29T02:02:00.564Z,988.8
2017-06-29T02:02:38.021Z,988.8
2017-06-29T02:03:15.587Z,988.8
2017-06-29T02:03:53.547Z,988.8
2017-06-29T02:04:31.597Z,988.8
2017-06-29T02:05:09.552Z,988.8
2017-06-29T02:05:47.409Z,988.8
2017-06-29T02:06:25.363Z,988.8
2017-06-29T02:07:03.222Z,988.8
2017-06-29T02:07:41.492Z,988.8
2017-06-29T02:08:19.250Z,988.8
2017-06-29T02:08:57.107Z,988.8
2017-06-29T02:09:34.967Z,988.8
2017-06-29T02:10:12.818Z,988.8
2017-06-29T02:10:50.498Z,988.8
2017-06-29T02:11:28.251Z,988.9
2017-06-29T02:12:06.009Z,988.9
2017-06-29T02:12:43.573Z,988.9
2017-06-29T02:13:21.319Z,988.9
2017-06-29T02:13:59.284Z,988.9
2017-06-29T02:14:37.041Z,988.9
2017-06-29T02:15:14.999Z,988.9
2017-06-29T02:15:52.558Z,988.9
2017-06-29T02:16:30.329Z,988.9
2017-06-29T02:17:07.884Z,988.9
2017-06-29T02:17:45.548Z,988.9
2017-06-29T02:18:23.409Z,988.9
2017-06-29T02:19:01.265Z,988.9
2017-06-29T02:19:39.120Z,988.9
2017-06-29T02:20:16.978Z,988.9
2017-06-29T02:20:54.943Z,988.9
2017-06-29T02:21:32.498Z,988.9
2017-06-29T02:22:10.360Z,988.9
2017-06-29T02:22:48.422Z,988.9
2017-06-29T02:23:25.978Z,988.9
2017-06-29T02:24:03.827Z,989.0
2017-06-29T02:24:41.600Z,989.0
2017-06-29T02:25:19.264Z,989.0
2017-06-29T02:25:57.319Z,989.0
2017-06-29T02:26:34.994Z,989.0
2017-06-29T02:27:12.553Z,988.9
2017-06-29T02:27:50.424Z,988.9
2017-06-29T02:28:28.476Z,988.9
2017-06-29T02:29:06.132Z,989.0
2017-06-29T02:29:43.898Z,988.9
2017-06-29T02:30:21.653Z,988.9
2017-06-29T02:30:59.405Z,989.0
2017-06-29T02:31:37.573Z,989.0
2017-06-29T02:32:15.141Z,989.0
2017-06-29T02:32:52.997Z,989.0
2017-06-29T02:33:30.766Z,989.0
2017-06-29T02:34:08.730Z,989.0
2017-06-29T02:34:46.790Z,989.0
2017-06-29T02:35:24.840Z,989.0
2017-06-29T02:36:02.993Z,989.0
2017-06-29T02:36:41.276Z,989.0
2017-06-29T02:37:18.835Z,989.0
2017-06-29T02:37:56.593Z,989.0
2017-06-29T02:38:34.657Z,989.0
2017-06-29T02:39:12.511Z,988.9
2017-06-29T02:39:50.379Z,988.9
2017-06-29T02:40:28.549Z,988.9
2017-06-29T02:41:06.513Z,988.9
2017-06-29T02:41:44.564Z,988.9
2017-06-29T02:42:22.223Z,988.9
2017-06-29T02:42:59.885Z,988.9
2017-06-29T02:43:37.737Z,988.9
2017-06-29T02:44:16.004Z,988.9
2017-06-29T02:44:53.778Z,988.9
2017-06-29T02:45:31.532Z,988.9
2017-06-29T02:46:09.498Z,988.9
2017-06-29T02:46:47.448Z,988.9
2017-06-29T02:47:25.430Z,988.9
2017-06-29T02:48:03.384Z,988.9
2017-06-29T02:48:41.062Z,988.9
2017-06-29T02:49:18.932Z,988.9
2017-06-29T02:49:56.692Z,988.9
2017-06-29T02:50:34.246Z,988.9
2017-06-29T02:51:12.506Z,988.9
2017-06-29T02:51:50.785Z,988.9
2017-06-29T02:52:28.437Z,989.0
2017-06-29T02:53:06.391Z,989.0
2017-06-29T02:53:44.558Z,989.0
2017-06-29T02:54:22.710Z,989.0
2017-06-29T02:55:00.365Z,989.0
2017-06-29T02:55:38.227Z,989.0
2017-06-29T02:56:15.889Z,988.9
2017-06-29T02:56:53.643Z,988.9
2017-06-29T02:57:31.714Z,988.9
2017-06-29T02:58:09.266Z,988.9
2017-06-29T02:58:47.030Z,988.9
2017-06-29T02:59:24.799Z,988.9
2017-06-29T03:00:02.779Z,988.9
2017-06-29T03:00:40.947Z,988.9
2017-06-29T03:01:18.702Z,988.9
2017-06-29T03:01:56.480Z,988.9
2017-06-29T03:02:34.545Z,989.0
2017-06-29T03:03:12.642Z,989.0
2017-06-29T03:03:50.370Z,989.0
2017-06-29T03:04:28.237Z,989.0
2017-06-29T03:05:05.893Z,989.0
2017-06-29T03:05:43.745Z,989.0
2017-06-29T03:06:21.809Z,989.0
2017-06-29T03:06:59.669Z,988.9
2017-06-29T03:07:37.625Z,989.0
2017-06-29T03:08:15.283Z,989.0
2017-06-29T03:08:53.045Z,989.0
2017-06-29T03:09:30.704Z,989.0
2017-06-29T03:10:08.561Z,989.0
2017-06-29T03:10:46.428Z,989.0
2017-06-29T03:11:24.491Z,989.0
2017-06-29T03:12:02.247Z,989.0
2017-06-29T03:12:40.407Z,989.0
2017-06-29T03:13:18.375Z,989.0
2017-06-29T03:13:56.726Z,989.0
2017-06-29T03:14:34.285Z,989.0
2017-06-29T03:15:12.241Z,989.0
2017-06-29T03:15:50.298Z,989.0
2017-06-29T03:16:28.155Z,989.0
2017-06-29T03:17:06.450Z,989.0
2017-06-29T03:17:44.506Z,989.0
2017-06-29T03:18:22.076Z,989.0
2017-06-29T03:18:59.932Z,989.0
2017-06-29T03:19:37.691Z,989.0
2017-06-29T03:20:15.556Z,989.0
2017-06-29T03:20:53.317Z,989.0
2017-06-29T03:21:31.275Z,989.0
2017-06-29T03:22:09.434Z,989.0
2017-06-29T03:22:47.215Z,989.0
2017-06-29T03:23:24.968Z,989.1
2017-06-29T03:24:02.642Z,989.0
2017-06-29T03:24:40.296Z,989.1
2017-06-29T03:25:18.369Z,989.0
2017-06-29T03:25:56.325Z,989.0
2017-06-29T03:26:33.878Z,989.1
2017-06-29T03:27:11.742Z,989.1
2017-06-29T03:27:49.402Z,989.1
2017-06-29T03:28:27.377Z,989.0
2017-06-29T03:29:05.365Z,989.0
2017-06-29T03:29:43.425Z,989.1
2017-06-29T03:30:21.290Z,989.1
2017-06-29T03:30:59.154Z,989.0
2017-06-29T03:31:36.912Z,989.1
2017-06-29T03:32:14.566Z,989.1
2017-06-29T03:32:52.228Z,989.0
2017-06-29T03:33:30.391Z,989.0
2017-06-29T03:34:08.457Z,989.0
2017-06-29T03:34:46.010Z,989.1
2017-06-29T03:35:23.772Z,989.0
2017-06-29T03:36:01.938Z,989.1
2017-06-29T03:36:39.985Z,989.0
2017-06-29T03:37:17.949Z,989.0
2017-06-29T03:37:56.217Z,989.0
2017-06-29T03:38:33.975Z,989.0
2017-06-29T03:39:11.641Z,989.0
2017-06-29T03:39:49.689Z,989.0
2017-06-29T03:40:27.447Z,989.0
2017-06-29T03:41:05.307Z,989.0
2017-06-29T03:41:43.280Z,989.0
2017-06-29T03:42:21.442Z,989.0
2017-06-29T03:42:59.398Z,989.0
2017-06-29T03:43:37.153Z,989.0
2017-06-29T03:44:15.124Z,989.0
2017-06-29T03:44:53.296Z,989.0
2017-06-29T03:45:30.942Z,989.0
2017-06-29T03:46:08.708Z,988.9
2017-06-29T03:46:46.783Z,988.9
2017-06-29T03:47:24.641Z,989.0
2017-06-29T03:48:02.502Z,988.9
2017-06-29T03:48:40.361Z,988.9
2017-06-29T03:49:17.918Z,988.9
2017-06-29T03:49:55.776Z,988.9
2017-06-29T03:50:33.827Z,988.9
2017-06-29T03:51:11.789Z,988.9
2017-06-29T03:51:49.358Z,988.9
2017-06-29T03:52:27.118Z,988.9
2017-06-29T03:53:04.886Z,988.9
2017-06-29T03:53:42.859Z,988.9
2017-06-29T03:54:20.911Z,988.9
2017-06-29T03:54:59.497Z,988.9
2017-06-29T03:55:37.265Z,988.9
2017-06-29T03:56:14.920Z,988.9
2017-06-29T03:56:52.698Z,988.9
2017-06-29T03:57:30.768Z,988.9
2017-06-29T03:58:08.441Z,988.9
2017-06-29T03:58:46.525Z,988.9
2017-06-29T03:59:24.280Z,988.9
2017-06-29T04:00:01.944Z,988.9
2017-06-29T04:00:39.533Z,988.9
2017-06-29T04:01:17.698Z,988.9
2017-06-29T04:01:55.663Z,988.9
2017-06-29T04:02:33.335Z,988.9
2017-06-29T04:03:11.293Z,988.9
2017-06-29T04:03:49.056Z,988.9
2017-06-29T04:04:27.523Z,988.9
2017-06-29T04:05:05.214Z,988.9
2017-06-29T04:05:42.968Z,988.9
2017-06-29T04:06:20.828Z,988.9
2017-06-29T04:06:58.594Z,988.8
2017-06-29T04:07:36.361Z,988.9
2017-06-29T04:08:14.325Z,988.9
2017-06-29T04:08:52.184Z,988.8
2017-06-29T04:09:29.956Z,988.8
2017-06-29T04:10:07.735Z,988.8
2017-06-29T04:10:45.431Z,988.8
2017-06-29T04:11:23.287Z,988.8
2017-06-29T04:12:00.941Z,988.8
2017-06-29T04:12:38.999Z,988.8
2017-06-29T04:13:16.963Z,988.8
2017-06-29T04:13:54.826Z,988.8
2017-06-29T04:14:32.789Z,988.8
2017-06-29T04:15:10.852Z,988.8
2017-06-29T04:15:48.624Z,988.7
2017-06-29T04:16:26.599Z,988.8
2017-06-29T04:17:05.069Z,988.8
2017-06-29T04:17:42.832Z,988.7
2017-06-29T04:18:21.014Z,988.7
2017-06-29T04:18:59.286Z,988.8
2017-06-29T04:19:37.456Z,988.8
2017-06-29T04:20:15.522Z,988.8
2017-06-29T04:20:53.280Z,988.8
2017-06-29T04:21:31.146Z,988.8
2017-06-29T04:22:08.916Z,988.8
2017-06-29T04:22:46.882Z,988.8
2017-06-29T04:23:24.644Z,988.8
2017-06-29T04:24:02.409Z,988.8
2017-06-29T04:24:40.177Z,988.8
2017-06-29T04:25:17.836Z,988.8
2017-06-29T04:25:55.993Z,988.8
2017-06-29T04:26:33.761Z,988.9
2017-06-29T04:27:11.747Z,988.8
2017-06-29T04:27:49.411Z,988.8
2017-06-29T04:28:27.371Z,988.9
2017-06-29T04:29:05.535Z,988.9
2017-06-29T04:29:43.498Z,988.9
2017-06-29T04:30:21.573Z,988.9
2017-06-29T04:30:59.558Z,988.9
2017-06-29T04:31:37.421Z,988.9
2017-06-29T04:32:15.675Z,988.9
2017-06-29T04:32:53.842Z,988.9
2017-06-29T04:33:31.625Z,988.9
2017-06-29T04:34:09.286Z,988.9
2017-06-29T04:34:47.466Z,988.9
2017-06-29T04:35:25.430Z,988.9
2017-06-29T04:36:03.397Z,988.9
2017-06-29T04:36:41.356Z,988.9
2017-06-29T04:37:19.316Z,988.9
2017-06-29T04:37:57.182Z,989.0
2017-06-29T04:38:34.751Z,989.0
2017-06-29T04:39:12.717Z,989.0
2017-06-29T04:39:50.279Z,988.9
2017-06-29T04:40:27.937Z,989.0
2017-06-29T04:41:06.101Z,988.9
2017-06-29T04:41:44.075Z,988.9
2017-06-29T04:42:21.932Z,988.9
2017-06-29T04:42:59.824Z,988.9
2017-06-29T04:43:37.792Z,988.9
2017-06-29T04:44:15.857Z,988.9
2017-06-29T04:44:53.625Z,988.9
2017-06-29T04:45:31.486Z,988.9
2017-06-29T04:46:09.548Z,988.9
2017-06-29T04:46:47.312Z,988.9
2017-06-29T04:47:24.975Z,988.9
2017-06-29T04:48:02.640Z,988.9
2017-06-29T04:48:40.523Z,988.9
2017-06-29T04:49:18.687Z,988.9
2017-06-29T04:49:56.647Z,988.9
2017-06-29T04:50:34.422Z,988.9
2017-06-29T04:51:12.195Z,988.9
2017-06-29T04:51:49.855Z,988.9
2017-06-29T04:52:27.633Z,988.9
2017-06-29T04:53:05.623Z,988.9
2017-06-29T04:53:43.489Z,988.9
2017-06-29T04:54:21.537Z,988.9
2017-06-29T04:54:59.720Z,988.9
2017-06-29T04:55:37.783Z,988.9
2017-06-29T04:56:15.745Z,988.9
2017-06-29T04:56:53.616Z,988.9
2017-06-29T04:57:31.782Z,988.9
2017-06-29T04:58:09.655Z,988.9
2017-06-29T04:58:47.527Z,988.9
2017-06-29T04:59:25.607Z,989.0
2017-06-29T05:00:03.365Z,988.9
2017-06-29T05:00:41.328Z,989.0
2017-06-29T05:01:19.093Z,989.0
2017-06-29T05:01:56.763Z,989.0
2017-06-29T05:02:34.516Z,989.0
2017-06-29T05:03:12.713Z,989.0
2017-06-29T05:03:50.688Z,989.0
2017-06-29T05:04:28.550Z,989.0
2017-06-29T05:05:06.817Z,989.0
2017-06-29T05:05:44.682Z,989.0
2017-06-29T05:06:22.684Z,989.0
2017-06-29T05:07:00.355Z,989.0
2017-06-29T05:07:38.128Z,989.0
2017-06-29T05:08:15.999Z,989.0
2017-06-29T05:08:53.674Z,989.0
2017-06-29T05:09:31.643Z,989.0
2017-06-29T05:10:09.607Z,989.0
2017-06-29T05:10:47.775Z,989.0
2017-06-29T05:11:25.343Z,989.0
2017-06-29T05:12:03.202Z,989.0
2017-06-29T05:12:41.077Z,989.0
2017-06-29T05:13:19.036Z,989.0
2017-06-29T05:13:56.798Z,989.0
2017-06-29T05:14:34.767Z,989.0
2017-06-29T05:15:12.436Z,989.0
2017-06-29T05:15:50.400Z,989.1
2017-06-29T05:16:28.086Z,989.0
2017-06-29T05:17:05.953Z,989.1
2017-06-29T05:17:44.045Z,989.1
2017-06-29T05:18:22.001Z,989.0
2017-06-29T05:18:59.880Z,989.1
2017-06-29T05:19:37.661Z,989.1
2017-06-29T05:20:15.825Z,989.1
2017-06-29T05:20:53.786Z,989.1
2017-06-29T05:21:31.654Z,989.2
2017-06-29T05:22:09.625Z,989.1
2017-06-29T05:22:47.483Z,989.2
2017-06-29T05:23:25.342Z,989.2
2017-06-29T05:24:03.010Z,989.2
2017-06-29T05:24:41.085Z,989.2
2017-06-29T05:25:18.947Z,989.2
2017-06-29T05:25:57.029Z,989.2
2017-06-29T05:26:34.922Z,989.2
2017-06-29T05:27:12.877Z,989.2
2017-06-29T05:27:50.743Z,989.2
2017-06-29T05:28:28.511Z,989.2
2017-06-29T05:29:06.281Z,989.2
2017-06-29T05:29:44.241Z,989.3
2017-06-29T05:30:22.307Z,989.2
2017-06-29T05:31:00.185Z,989.2
2017-06-29T05:31:38.158Z,989.2
2017-06-29T05:32:16.023Z,989.2
2017-06-29T05:32:53.898Z,989.2
2017-06-29T05:33:31.663Z,989.2
2017-06-29T05:34:09.227Z,989.2
2017-06-29T05:34:46.901Z,989.2
2017-06-29T05:35:24.771Z,989.2
2017-06-29T05:36:02.629Z,989.2
2017-06-29T05:36:40.394Z,989.2
2017-06-29T05:37:18.259Z,989.3
2017-06-29T05:37:56.247Z,989.2
2017-06-29T05:38:34.010Z,989.2
2017-06-29T05:39:11.774Z,989.2
2017-06-29T05:39:49.654Z,989.2
2017-06-29T05:40:27.612Z,989.2
2017-06-29T05:41:05.596Z,989.2
2017-06-29T05:41:43.070Z,989.2
2017-06-29T05:42:21.043Z,989.1
2017-06-29T05:42:59.204Z,989.1
2017-06-29T05:43:37.073Z,989.1
2017-06-29T05:44:14.654Z,989.2
2017-06-29T05:44:52.524Z,989.1
2017-06-29T05:45:30.406Z,989.2
2017-06-29T05:46:08.386Z,989.1
2017-06-29T05:46:46.048Z,989.1
2017-06-29T05:47:24.620Z,989.1
2017-06-29T05:48:02.487Z,989.1
2017-06-29T05:48:40.453Z,989.2
2017-06-29T05:49:18.617Z,989.2
2017-06-29T05:49:56.783Z,989.2
2017-06-29T05:50:34.947Z,989.2
2017-06-29T05:51:12.819Z,989.2
2017-06-29T05:51:50.394Z,989.2
2017-06-29T05:52:28.243Z,989.3
2017-06-29T05:53:06.222Z,989.2
2017-06-29T05:53:43.887Z,989.3
2017-06-29T05:54:21.857Z,989.3
2017-06-29T05:54:59.822Z,989.2
2017-06-29T05:55:37.585Z,989.3
2017-06-29T05:56:15.452Z,989.2
2017-06-29T05:56:53.618Z,989.2
2017-06-29T05:57:31.587Z,989.2
2017-06-29T05:58:09.651Z,989.2
2017-06-29T05:58:47.613Z,989.2
2017-06-29T05:59:25.378Z,989.2
2017-06-29T06:00:03.341Z,989.2
2017-06-29T06:00:41.208Z,989.2
2017-06-29T06:01:18.981Z,989.2
2017-06-29T06:01:56.666Z,989.2
2017-06-29T06:02:34.324Z,989.2
2017-06-29T06:03:12.096Z,989.3
2017-06-29T06:03:50.059Z,989.3
2017-06-29T06:04:28.333Z,989.3
2017-06-29T06:05:06.103Z,989.3
2017-06-29T06:05:43.669Z,989.3
2017-06-29T06:06:21.647Z,989.3
2017-06-29T06:07:00.003Z,989.3
2017-06-29T06:07:37.766Z,989.3
2017-06-29T06:08:15.832Z,989.3
2017-06-29T06:08:53.807Z,989.3
2017-06-29T06:09:31.373Z,989.3
2017-06-29T06:10:09.039Z,989.3
2017-06-29T06:10:46.725Z,989.3
2017-06-29T06:11:24.278Z,989.3
2017-06-29T06:12:02.246Z,989.3
2017-06-29T06:12:40.415Z,989.3
2017-06-29T06:13:18.283Z,989.2
2017-06-29T06:13:56.550Z,989.2
2017-06-29T06:14:34.417Z,989.2
2017-06-29T06:15:12.386Z,989.2
2017-06-29T06:15:50.355Z,989.2
2017-06-29T06:16:28.343Z,989.2
2017-06-29T06:17:06.216Z,989.2
2017-06-29T06:17:43.781Z,989.2
2017-06-29T06:18:21.958Z,989.2
2017-06-29T06:18:59.618Z,989.3
2017-06-29T06:19:37.397Z,989.2
2017-06-29T06:20:15.265Z,989.2
2017-06-29T06:20:53.335Z,989.2
2017-06-29T06:21:31.314Z,989.2
2017-06-29T06:22:09.289Z,989.2
2017-06-29T06:22:47.257Z,989.2
2017-06-29T06:23:25.427Z,989.2
2017-06-29T06:24:03.505Z,989.2
2017-06-29T06:24:41.474Z,989.2
2017-06-29T06:25:19.240Z,989.3
2017-06-29T06:25:57.116Z,989.3
2017-06-29T06:26:34.821Z,989.3
2017-06-29T06:27:12.791Z,989.3
2017-06-29T06:27:50.462Z,989.3
2017-06-29T06:28:28.445Z,989.3
2017-06-29T06:29:06.218Z,989.3
2017-06-29T06:29:44.090Z,989.3
2017-06-29T06:30:21.959Z,989.3
2017-06-29T06:30:59.743Z,989.3
2017-06-29T06:31:37.525Z,989.3
2017-06-29T06:32:15.593Z,989.3
2017-06-29T06:32:53.262Z,989.3
2017-06-29T06:33:31.453Z,989.3
2017-06-29T06:34:09.729Z,989.3
2017-06-29T06:34:47.503Z,989.4
2017-06-29T06:35:25.398Z,989.4
2017-06-29T06:36:03.272Z,989.4
2017-06-29T06:36:41.246Z,989.3
2017-06-29T06:37:19.027Z,989.3
2017-06-29T06:37:56.804Z,989.4
2017-06-29T06:38:34.780Z,989.3
2017-06-29T06:39:12.556Z,989.3
2017-06-29T06:39:50.233Z,989.3
2017-06-29T06:40:27.902Z,989.3
2017-06-29T06:41:05.974Z,989.3
2017-06-29T06:41:43.767Z,989.3
2017-06-29T06:42:21.342Z,989.3
2017-06-29T06:42:59.431Z,989.4
2017-06-29T06:43:37.389Z,989.4
2017-06-29T06:44:14.873Z,989.4
2017-06-29T06:44:52.847Z,989.4
2017-06-29T06:45:31.227Z,989.4
2017-06-29T06:46:09.008Z,989.4
2017-06-29T06:46:47.076Z,989.4
2017-06-29T06:47:24.774Z,989.5
2017-06-29T06:48:02.449Z,989.4
2017-06-29T06:48:40.327Z,989.4
2017-06-29T06:49:18.012Z,989.5
2017-06-29T06:49:55.793Z,989.4
2017-06-29T06:50:33.564Z,989.4
2017-06-29T06:51:11.532Z,989.5
2017-06-29T06:51:49.607Z,989.5
2017-06-29T06:52:27.286Z,989.5
2017-06-29T06:53:04.860Z,989.4
2017-06-29T06:53:42.733Z,989.4
2017-06-29T06:54:20.392Z,989.4
2017-06-29T06:54:57.978Z,989.5
2017-06-29T06:55:35.752Z,989.4
2017-06-29T06:56:13.532Z,989.4
2017-06-29T06:56:51.507Z,989.4
2017-06-29T06:57:29.383Z,989.4
2017-06-29T06:58:06.954Z,989.4
2017-06-29T06:58:44.837Z,989.4
2017-06-29T06:59:22.413Z,989.5
2017-06-29T07:00:00.200Z,989.5
2017-06-29T07:00:38.281Z,989.5
2017-06-29T07:01:16.154Z,989.5
2017-06-29T07:01:54.037Z,989.4
2017-06-29T07:02:32.145Z,989.4
2017-06-29T07:03:09.929Z,989.5
2017-06-29T07:03:47.796Z,989.5
2017-06-29T07:04:25.666Z,989.4
2017-06-29T07:05:03.547Z,989.4
2017-06-29T07:05:41.521Z,989.4
2017-06-29T07:06:19.309Z,989.5
2017-06-29T07:06:57.585Z,989.5
2017-06-29T07:07:35.169Z,989.5
2017-06-29T07:08:13.047Z,989.5
2017-06-29T07:08:51.521Z,989.5
2017-06-29T07:09:29.099Z,989.5
2017-06-29T07:10:07.180Z,989.5
2017-06-29T07:10:45.272Z,989.5
2017-06-29T07:11:23.852Z,989.6
2017-06-29T07:12:01.721Z,989.5
2017-06-29T07:12:39.503Z,989.6
2017-06-29T07:13:17.178Z,989.6
2017-06-29T07:13:55.157Z,989.6
2017-06-29T07:14:32.927Z,989.6
2017-06-29T07:15:11.305Z,989.6
2017-06-29T07:15:49.396Z,989.7
2017-06-29T07:16:27.282Z,989.7
2017-06-29T07:17:05.177Z,989.6
2017-06-29T07:17:43.149Z,989.6
2017-06-29T07:18:20.818Z,989.7
2017-06-29T07:18:58.588Z,989.6
2017-06-29T07:19:36.164Z,989.6
2017-06-29T07:20:14.130Z,989.6
2017-06-29T07:20:52.111Z,989.6
2017-06-29T07:21:29.887Z,989.7
2017-06-29T07:22:07.655Z,989.6
2017-06-29T07:22:45.830Z,989.6
2017-06-29T07:23:23.606Z,989.6
2017-06-29T07:24:01.500Z,989.6
2017-06-29T07:24:39.076Z,989.6
2017-06-29T07:25:16.951Z,989.6
2017-06-29T07:25:54.931Z,989.6
2017-06-29T07:26:33.126Z,989.7
2017-06-29T07:27:11.008Z,989.7
2017-06-29T07:27:49.282Z,989.6
2017-06-29T07:28:27.158Z,989.7
2017-06-29T07:29:04.732Z,989.6
2017-06-29T07:29:42.507Z,989.6
2017-06-29T07:30:20.289Z,989.6
2017-06-29T07:30:57.854Z,989.6
2017-06-29T07:31:35.533Z,989.6
2017-06-29T07:32:13.307Z,989.6
2017-06-29T07:32:51.377Z,989.6
2017-06-29T07:33:29.055Z,989.6
2017-06-29T07:34:06.831Z,989.6
2017-06-29T07:34:45.007Z,989.6
2017-06-29T07:35:22.587Z,989.6
2017-06-29T07:36:00.353Z,989.6
2017-06-29T07:36:38.039Z,989.6
2017-06-29T07:37:15.619Z,989.6
2017-06-29T07:37:53.494Z,989.6
2017-06-29T07:38:31.173Z,989.7
2017-06-29T07:39:09.151Z,989.6
2017-06-29T07:39:47.125Z,989.7
2017-06-29T07:40:24.894Z,989.7
2017-06-29T07:41:02.571Z,989.7
2017-06-29T07:41:40.439Z,989.7
2017-06-29T07:42:18.515Z,989.7
2017-06-29T07:42:56.595Z,989.7
2017-06-29T07:43:34.576Z,989.7
2017-06-29T07:44:12.348Z,989.7
2017-06-29T07:44:50.305Z,989.7
2017-06-29T07:45:28.381Z,989.7
2017-06-29T07:46:06.270Z,989.7
2017-06-29T07:46:44.350Z,989.7
2017-06-29T07:47:22.130Z,989.7
2017-06-29T07:48:00.205Z,989.8
2017-06-29T07:48:37.777Z,989.7
2017-06-29T07:49:15.968Z,989.7
2017-06-29T07:49:53.636Z,989.7
2017-06-29T07:50:31.307Z,989.7
2017-06-29T07:51:09.065Z,989.7
2017-06-29T07:51:47.156Z,989.7
2017-06-29T07:52:24.937Z,989.7
2017-06-29T07:53:02.806Z,989.7
2017-06-29T07:53:40.686Z,989.7
2017-06-29T07:54:18.860Z,989.7
2017-06-29T07:54:56.732Z,989.7
2017-06-29T07:55:34.602Z,989.7
2017-06-29T07:56:12.278Z,989.7
2017-06-29T07:56:49.852Z,989.8
2017-06-29T07:57:27.430Z,989.8
2017-06-29T07:58:05.388Z,989.8
2017-06-29T07:58:43.059Z,989.8
2017-06-29T07:59:21.028Z,989.8
2017-06-29T07:59:58.592Z,989.8
2017-06-29T08:00:36.567Z,989.8
2017-06-29T08:01:14.639Z,989.8
2017-06-29T08:01:52.508Z,989.8
2017-06-29T08:02:30.372Z,989.8
2017-06-29T08:03:08.148Z,989.8
2017-06-29T08:03:45.716Z,989.8
2017-06-29T08:04:23.385Z,989.8
2017-06-29T08:05:01.460Z,989.8
2017-06-29T08:05:39.734Z,989.8
2017-06-29T08:06:17.697Z,989.8
2017-06-29T08:06:55.577Z,989.8
2017-06-29T08:07:33.570Z,989.8